Main page
Satellite images 10-day forecastsClimateMarine weather Cyclones Lightning AirportsFAQ Newsletter About
Weather : Europe Africa North America South America Asia Australia-Oceania Others
Languages Contact

Podgorica, Montenegro

Podgorica Airport

latitude: 42-26N, longitude: 019-17E, elevation: 53 m


METAR: LYPG 060700Z 03019KT 9999 FEW030 SCT040 SCT080 09/M03 Q1017 NOSIG
TAF: LYPG 060500Z 0606/0706 01015G30KT 9999 SCT030 BKN080 TX13/0613Z TN04/0705Z TEMPO 0608/0706 02025G45KT

Time: 08:24 (07:24 UTC)

Current weather observation

The report was made 24 minutes ago, at 07:00 UTC
Wind 19 kt from the North/Northeast
Temperature 9°C
Humidity 43%
Pressure 1017 hPa
Visibility 10 km or more
Few clouds at a height of 3000 ft
Scattered clouds at a height of 4000 ft
Scattered clouds at a height of 8000 ft

Change units

Forecast

The report was made 2 hours and 24 minutes ago, at 05:00 UTC
Forecast valid from 06 at 06 UTC to 07 at 06 UTC
Wind 15 kt from the North with gusts up to 30 kt
Visibility 10 km or more
Scattered clouds at a height of 3000 ft
Broken clouds at a height of 8000 ft
Temporary
from 06 at 08 UTC to 07 at 06 UTC
Wind 25 kt from the North/Northeast with gusts up to 45 kt
The information on this site is subject to a disclaimer
Weather : Europe Africa North America South America Asia Australia-Oceania Others
Satellite images 10-day forecastsClimateMarine weather Cyclones Lightning AirportsFAQ Languages Contact Newsletter About